sensor_id;sensor_type;location;lat;lon;timestamp;pressure;altitude;pressure_sealevel;temperature;humidity
44351;BME280;62766;62.622;17.912;2023-02-11T00:00:38;99764.70;;;-0.34;45.53
44351;BME280;62766;62.622;17.912;2023-02-11T00:03:09;99763.34;;;-0.32;45.50
44351;BME280;62766;62.622;17.912;2023-02-11T00:05:38;99761.30;;;-0.23;45.49
44351;BME280;62766;62.622;17.912;2023-02-11T00:08:08;99765.10;;;-0.32;45.62
44351;BME280;62766;62.622;17.912;2023-02-11T00:10:37;99765.45;;;-0.34;45.80
44351;BME280;62766;62.622;17.912;2023-02-11T00:13:05;99761.54;;;-0.42;46.11
44351;BME280;62766;62.622;17.912;2023-02-11T00:15:34;99763.19;;;-0.38;46.57
44351;BME280;62766;62.622;17.912;2023-02-11T00:18:04;99758.45;;;-0.44;46.83
44351;BME280;62766;62.622;17.912;2023-02-11T00:20:33;99757.19;;;-0.37;46.81
44351;BME280;62766;62.622;17.912;2023-02-11T00:23:01;99754.41;;;-0.36;46.85
44351;BME280;62766;62.622;17.912;2023-02-11T00:25:30;99758.40;;;-0.50;46.87
44351;BME280;62766;62.622;17.912;2023-02-11T00:27:58;99759.46;;;-0.39;46.75
44351;BME280;62766;62.622;17.912;2023-02-11T00:30:27;99756.70;;;-0.34;46.82
44351;BME280;62766;62.622;17.912;2023-02-11T00:32:55;99754.20;;;-0.51;46.96
44351;BME280;62766;62.622;17.912;2023-02-11T00:35:24;99751.31;;;-0.59;46.81
44351;BME280;62766;62.622;17.912;2023-02-11T00:37:53;99749.94;;;-0.63;46.76
44351;BME280;62766;62.622;17.912;2023-02-11T00:40:21;99750.87;;;-0.69;46.90
44351;BME280;62766;62.622;17.912;2023-02-11T00:42:50;99753.73;;;-0.84;47.09
44351;BME280;62766;62.622;17.912;2023-02-11T00:45:18;99755.55;;;-0.71;47.30
44351;BME280;62766;62.622;17.912;2023-02-11T00:47:47;99757.68;;;-0.74;47.50
44351;BME280;62766;62.622;17.912;2023-02-11T00:50:15;99757.13;;;-0.75;47.69
44351;BME280;62766;62.622;17.912;2023-02-11T00:52:44;99761.19;;;-0.69;47.62
44351;BME280;62766;62.622;17.912;2023-02-11T00:55:12;99762.22;;;-0.81;47.59
44351;BME280;62766;62.622;17.912;2023-02-11T00:57:41;99764.51;;;-0.84;47.57
44351;BME280;62766;62.622;17.912;2023-02-11T01:00:11;99766.10;;;-0.94;47.89
44351;BME280;62766;62.622;17.912;2023-02-11T01:02:41;99771.57;;;-0.91;48.16
44351;BME280;62766;62.622;17.912;2023-02-11T01:05:10;99778.18;;;-0.98;48.49
44351;BME280;62766;62.622;17.912;2023-02-11T01:07:38;99778.96;;;-0.91;48.65
44351;BME280;62766;62.622;17.912;2023-02-11T01:10:07;99780.82;;;-1.02;48.74
44351;BME280;62766;62.622;17.912;2023-02-11T01:12:37;99782.64;;;-0.96;48.93
44351;BME280;62766;62.622;17.912;2023-02-11T01:15:08;99785.73;;;-1.12;49.01
44351;BME280;62766;62.622;17.912;2023-02-11T01:17:37;99789.36;;;-0.97;48.97
44351;BME280;62766;62.622;17.912;2023-02-11T01:20:10;99789.31;;;-0.97;49.02
44351;BME280;62766;62.622;17.912;2023-02-11T01:22:40;99791.42;;;-1.01;48.91
44351;BME280;62766;62.622;17.912;2023-02-11T01:25:09;99795.36;;;-1.01;48.75
44351;BME280;62766;62.622;17.912;2023-02-11T01:27:39;99796.34;;;-0.96;48.84
44351;BME280;62766;62.622;17.912;2023-02-11T01:30:11;99798.12;;;-0.99;48.45
44351;BME280;62766;62.622;17.912;2023-02-11T01:32:39;99797.25;;;-1.02;48.47
44351;BME280;62766;62.622;17.912;2023-02-11T01:35:08;99794.27;;;-0.91;48.45
44351;BME280;62766;62.622;17.912;2023-02-11T01:37:38;99797.32;;;-1.14;48.32
44351;BME280;62766;62.622;17.912;2023-02-11T01:40:12;99799.07;;;-1.19;48.32
44351;BME280;62766;62.622;17.912;2023-02-11T01:42:41;99800.58;;;-1.17;48.22
44351;BME280;62766;62.622;17.912;2023-02-11T01:45:57;99798.64;;;-1.32;48.23
44351;BME280;62766;62.622;17.912;2023-02-11T01:48:28;99805.78;;;-1.45;48.24
44351;BME280;62766;62.622;17.912;2023-02-11T01:51:02;99809.76;;;-1.49;48.31
44351;BME280;62766;62.622;17.912;2023-02-11T01:53:33;99813.54;;;-1.54;48.32
44351;BME280;62766;62.622;17.912;2023-02-11T01:56:03;99818.64;;;-1.51;48.47
44351;BME280;62766;62.622;17.912;2023-02-11T01:58:35;99821.64;;;-1.43;48.41
44351;BME280;62766;62.622;17.912;2023-02-11T02:01:07;99819.42;;;-1.53;48.23
44351;BME280;62766;62.622;17.912;2023-02-11T02:03:38;99820.09;;;-1.52;48.30
44351;BME280;62766;62.622;17.912;2023-02-11T02:06:15;99824.47;;;-1.64;48.35
44351;BME280;62766;62.622;17.912;2023-02-11T02:08:49;99821.65;;;-1.83;48.33
44351;BME280;62766;62.622;17.912;2023-02-11T02:11:20;99828.43;;;-1.68;48.21
44351;BME280;62766;62.622;17.912;2023-02-11T02:13:49;99828.46;;;-1.89;48.12
44351;BME280;62766;62.622;17.912;2023-02-11T02:16:20;99832.96;;;-1.78;48.13
44351;BME280;62766;62.622;17.912;2023-02-11T02:18:55;99836.68;;;-1.78;48.10
44351;BME280;62766;62.622;17.912;2023-02-11T02:21:52;99841.07;;;-1.73;48.04
44351;BME280;62766;62.622;17.912;2023-02-11T02:25:46;99843.11;;;-1.75;47.87
44351;BME280;62766;62.622;17.912;2023-02-11T02:28:45;99853.38;;;-1.75;47.94
44351;BME280;62766;62.622;17.912;2023-02-11T02:31:34;99859.65;;;-1.90;48.01
44351;BME280;62766;62.622;17.912;2023-02-11T02:34:13;99867.00;;;-2.01;48.05
44351;BME280;62766;62.622;17.912;2023-02-11T02:36:50;99873.87;;;-1.94;47.97
44351;BME280;62766;62.622;17.912;2023-02-11T02:39:26;99877.68;;;-2.07;48.13
44351;BME280;62766;62.622;17.912;2023-02-11T02:41:57;99880.32;;;-2.08;48.29
44351;BME280;62766;62.622;17.912;2023-02-11T02:44:25;99886.02;;;-2.05;48.18
44351;BME280;62766;62.622;17.912;2023-02-11T02:46:54;99879.05;;;-2.11;48.12
44351;BME280;62766;62.622;17.912;2023-02-11T02:49:22;99878.36;;;-2.10;48.03
44351;BME280;62766;62.622;17.912;2023-02-11T02:52:02;99880.81;;;-2.23;48.04
44351;BME280;62766;62.622;17.912;2023-02-11T02:55:01;99880.15;;;-2.10;47.99
44351;BME280;62766;62.622;17.912;2023-02-11T02:57:39;99879.90;;;-2.17;47.85
44351;BME280;62766;62.622;17.912;2023-02-11T03:00:22;99883.23;;;-2.14;47.75
44351;BME280;62766;62.622;17.912;2023-02-11T03:03:05;99887.54;;;-2.07;47.56
44351;BME280;62766;62.622;17.912;2023-02-11T03:05:47;99892.54;;;-2.08;47.24
44351;BME280;62766;62.622;17.912;2023-02-11T03:08:22;99900.09;;;-2.32;47.44
44351;BME280;62766;62.622;17.912;2023-02-11T03:10:53;99903.04;;;-2.22;47.22
44351;BME280;62766;62.622;17.912;2023-02-11T03:13:25;99900.62;;;-2.23;47.10
44351;BME280;62766;62.622;17.912;2023-02-11T03:15:56;99900.48;;;-2.32;47.08
44351;BME280;62766;62.622;17.912;2023-02-11T03:18:26;99899.33;;;-2.31;47.10
44351;BME280;62766;62.622;17.912;2023-02-11T03:20:57;99906.58;;;-2.56;47.24
44351;BME280;62766;62.622;17.912;2023-02-11T03:23:29;99911.38;;;-2.53;47.59
44351;BME280;62766;62.622;17.912;2023-02-11T03:26:04;99913.81;;;-2.56;47.66
44351;BME280;62766;62.622;17.912;2023-02-11T03:28:40;99915.44;;;-2.74;47.54
44351;BME280;62766;62.622;17.912;2023-02-11T03:31:16;99923.51;;;-2.80;47.51
44351;BME280;62766;62.622;17.912;2023-02-11T03:33:52;99928.83;;;-2.81;47.72
44351;BME280;62766;62.622;17.912;2023-02-11T03:36:26;99936.69;;;-2.78;48.24
44351;BME280;62766;62.622;17.912;2023-02-11T03:38:59;99941.17;;;-2.78;48.42
44351;BME280;62766;62.622;17.912;2023-02-11T03:41:30;99945.30;;;-2.81;48.58
44351;BME280;62766;62.622;17.912;2023-02-11T03:44:01;99955.78;;;-2.75;48.75
44351;BME280;62766;62.622;17.912;2023-02-11T03:46:36;99968.99;;;-2.76;48.80
44351;BME280;62766;62.622;17.912;2023-02-11T03:49:09;99973.62;;;-2.71;48.82
44351;BME280;62766;62.622;17.912;2023-02-11T03:51:39;99978.24;;;-2.60;48.77
44351;BME280;62766;62.622;17.912;2023-02-11T03:54:10;99979.86;;;-2.50;48.56
44351;BME280;62766;62.622;17.912;2023-02-11T03:56:48;99987.77;;;-2.41;48.16
44351;BME280;62766;62.622;17.912;2023-02-11T03:59:19;99994.11;;;-2.45;48.10
44351;BME280;62766;62.622;17.912;2023-02-11T04:01:47;100003.73;;;-2.66;48.11
44351;BME280;62766;62.622;17.912;2023-02-11T04:04:16;100015.23;;;-2.62;48.27
44351;BME280;62766;62.622;17.912;2023-02-11T04:06:44;100010.85;;;-2.60;48.25
44351;BME280;62766;62.622;17.912;2023-02-11T04:09:13;100017.19;;;-2.57;48.06
44351;BME280;62766;62.622;17.912;2023-02-11T04:11:41;100024.40;;;-2.64;48.01
44351;BME280;62766;62.622;17.912;2023-02-11T04:14:10;100035.73;;;-2.62;48.09
44351;BME280;62766;62.622;17.912;2023-02-11T04:16:38;100050.34;;;-2.73;48.12
44351;BME280;62766;62.622;17.912;2023-02-11T04:19:08;100054.39;;;-2.82;48.26
44351;BME280;62766;62.622;17.912;2023-02-11T04:21:36;100062.70;;;-2.69;48.13
44351;BME280;62766;62.622;17.912;2023-02-11T04:24:04;100062.12;;;-2.74;48.18
44351;BME280;62766;62.622;17.912;2023-02-11T04:26:33;100068.63;;;-2.60;48.34
44351;BME280;62766;62.622;17.912;2023-02-11T04:29:01;100070.78;;;-2.60;48.18
44351;BME280;62766;62.622;17.912;2023-02-11T04:31:30;100070.41;;;-2.77;48.16
44351;BME280;62766;62.622;17.912;2023-02-11T04:33:58;100070.08;;;-2.69;48.27
44351;BME280;62766;62.622;17.912;2023-02-11T04:36:27;100079.90;;;-2.59;48.26
44351;BME280;62766;62.622;17.912;2023-02-11T04:38:56;100084.53;;;-2.77;48.26
44351;BME280;62766;62.622;17.912;2023-02-11T04:41:24;100081.29;;;-2.75;48.20
44351;BME280;62766;62.622;17.912;2023-02-11T04:43:53;100087.14;;;-2.79;48.00
44351;BME280;62766;62.622;17.912;2023-02-11T04:46:21;100090.66;;;-2.77;47.77
44351;BME280;62766;62.622;17.912;2023-02-11T04:48:50;100101.76;;;-2.77;47.84
44351;BME280;62766;62.622;17.912;2023-02-11T04:51:18;100110.80;;;-2.83;47.67
44351;BME280;62766;62.622;17.912;2023-02-11T04:53:47;100116.83;;;-2.77;47.51
44351;BME280;62766;62.622;17.912;2023-02-11T04:56:16;100124.95;;;-2.73;47.40
44351;BME280;62766;62.622;17.912;2023-02-11T04:58:44;100132.14;;;-2.77;47.35
44351;BME280;62766;62.622;17.912;2023-02-11T05:03:31;100143.65;;;-2.89;47.04
44351;BME280;62766;62.622;17.912;2023-02-11T05:06:00;100152.11;;;-2.91;47.22
44351;BME280;62766;62.622;17.912;2023-02-11T05:08:28;100157.17;;;-2.95;47.12
44351;BME280;62766;62.622;17.912;2023-02-11T05:10:57;100160.23;;;-2.80;47.00
44351;BME280;62766;62.622;17.912;2023-02-11T05:13:25;100164.86;;;-3.02;46.89
44351;BME280;62766;62.622;17.912;2023-02-11T05:15:54;100173.35;;;-2.90;46.96
44351;BME280;62766;62.622;17.912;2023-02-11T05:18:23;100180.87;;;-2.87;46.83
44351;BME280;62766;62.622;17.912;2023-02-11T05:20:51;100188.83;;;-2.91;46.89
44351;BME280;62766;62.622;17.912;2023-02-11T05:23:19;100195.44;;;-2.97;46.92
44351;BME280;62766;62.622;17.912;2023-02-11T05:25:48;100203.41;;;-2.77;46.94
44351;BME280;62766;62.622;17.912;2023-02-11T05:28:17;100208.63;;;-2.85;46.87
44351;BME280;62766;62.622;17.912;2023-02-11T05:30:45;100221.46;;;-2.98;46.83
44351;BME280;62766;62.622;17.912;2023-02-11T05:33:14;100230.92;;;-3.01;46.89
44351;BME280;62766;62.622;17.912;2023-02-11T05:35:42;100238.08;;;-3.02;46.99
44351;BME280;62766;62.622;17.912;2023-02-11T05:38:11;100241.62;;;-2.96;47.07
44351;BME280;62766;62.622;17.912;2023-02-11T05:40:40;100243.79;;;-2.95;47.21
44351;BME280;62766;62.622;17.912;2023-02-11T05:43:10;100251.10;;;-2.92;47.25
44351;BME280;62766;62.622;17.912;2023-02-11T05:45:39;100263.20;;;-2.92;47.31
44351;BME280;62766;62.622;17.912;2023-02-11T05:48:08;100268.48;;;-2.96;47.31
44351;BME280;62766;62.622;17.912;2023-02-11T05:50:37;100281.79;;;-2.83;47.27
44351;BME280;62766;62.622;17.912;2023-02-11T05:53:06;100293.02;;;-2.87;47.37
44351;BME280;62766;62.622;17.912;2023-02-11T05:55:35;100304.19;;;-2.94;47.37
44351;BME280;62766;62.622;17.912;2023-02-11T05:58:03;100308.65;;;-2.98;47.60
44351;BME280;62766;62.622;17.912;2023-02-11T06:00:32;100311.30;;;-2.99;47.76
44351;BME280;62766;62.622;17.912;2023-02-11T06:03:03;100317.00;;;-2.95;47.55
44351;BME280;62766;62.622;17.912;2023-02-11T06:05:31;100327.87;;;-2.98;47.78
44351;BME280;62766;62.622;17.912;2023-02-11T06:07:59;100336.00;;;-3.07;47.87
44351;BME280;62766;62.622;17.912;2023-02-11T06:10:28;100350.56;;;-2.99;47.79
44351;BME280;62766;62.622;17.912;2023-02-11T06:12:56;100356.91;;;-3.00;47.65
44351;BME280;62766;62.622;17.912;2023-02-11T06:15:25;100361.94;;;-3.02;47.49
44351;BME280;62766;62.622;17.912;2023-02-11T06:17:53;100369.74;;;-2.89;47.21
44351;BME280;62766;62.622;17.912;2023-02-11T06:20:22;100377.60;;;-2.97;47.56
44351;BME280;62766;62.622;17.912;2023-02-11T06:22:51;100377.77;;;-2.95;47.38
44351;BME280;62766;62.622;17.912;2023-02-11T06:25:19;100383.76;;;-3.02;47.35
44351;BME280;62766;62.622;17.912;2023-02-11T06:27:48;100390.66;;;-3.06;47.41
44351;BME280;62766;62.622;17.912;2023-02-11T06:30:16;100395.39;;;-3.10;47.42
44351;BME280;62766;62.622;17.912;2023-02-11T06:32:45;100396.42;;;-3.18;47.44
44351;BME280;62766;62.622;17.912;2023-02-11T06:35:13;100401.37;;;-3.05;47.34
44351;BME280;62766;62.622;17.912;2023-02-11T06:37:42;100412.46;;;-3.24;47.16
44351;BME280;62766;62.622;17.912;2023-02-11T06:40:11;100425.89;;;-3.28;47.01
44351;BME280;62766;62.622;17.912;2023-02-11T06:42:40;100433.45;;;-3.18;47.48
44351;BME280;62766;62.622;17.912;2023-02-11T06:45:10;100444.93;;;-3.25;47.53
44351;BME280;62766;62.622;17.912;2023-02-11T06:47:40;100446.56;;;-3.42;47.63
44351;BME280;62766;62.622;17.912;2023-02-11T06:50:11;100452.86;;;-3.36;47.96
44351;BME280;62766;62.622;17.912;2023-02-11T06:52:41;100459.12;;;-3.38;48.15
44351;BME280;62766;62.622;17.912;2023-02-11T06:55:09;100470.51;;;-3.41;48.21
44351;BME280;62766;62.622;17.912;2023-02-11T06:57:38;100475.41;;;-3.32;48.49
44351;BME280;62766;62.622;17.912;2023-02-11T07:00:07;100490.58;;;-3.40;48.35
44351;BME280;62766;62.622;17.912;2023-02-11T07:02:36;100499.95;;;-3.45;48.43
44351;BME280;62766;62.622;17.912;2023-02-11T07:05:06;100507.30;;;-3.43;48.56
44351;BME280;62766;62.622;17.912;2023-02-11T07:07:36;100512.74;;;-3.47;48.62
44351;BME280;62766;62.622;17.912;2023-02-11T07:10:05;100523.13;;;-3.46;48.61
44351;BME280;62766;62.622;17.912;2023-02-11T07:12:33;100531.92;;;-3.42;48.74
44351;BME280;62766;62.622;17.912;2023-02-11T07:15:02;100537.55;;;-3.41;48.86
44351;BME280;62766;62.622;17.912;2023-02-11T07:17:30;100544.57;;;-3.39;48.98
44351;BME280;62766;62.622;17.912;2023-02-11T07:19:58;100554.20;;;-3.59;49.17
44351;BME280;62766;62.622;17.912;2023-02-11T07:22:27;100562.78;;;-3.49;49.35
44351;BME280;62766;62.622;17.912;2023-02-11T07:24:56;100569.58;;;-3.51;49.49
44351;BME280;62766;62.622;17.912;2023-02-11T07:27:24;100572.29;;;-3.55;49.75
44351;BME280;62766;62.622;17.912;2023-02-11T07:29:53;100578.96;;;-3.39;49.69
44351;BME280;62766;62.622;17.912;2023-02-11T07:32:21;100592.24;;;-3.42;49.78
44351;BME280;62766;62.622;17.912;2023-02-11T07:34:50;100602.69;;;-3.33;49.77
44351;BME280;62766;62.622;17.912;2023-02-11T07:37:19;100607.42;;;-3.24;49.79
44351;BME280;62766;62.622;17.912;2023-02-11T07:39:47;100604.60;;;-3.11;49.54
44351;BME280;62766;62.622;17.912;2023-02-11T07:42:16;100605.44;;;-3.09;49.36
44351;BME280;62766;62.622;17.912;2023-02-11T07:44:45;100609.75;;;-3.16;49.34
44351;BME280;62766;62.622;17.912;2023-02-11T07:47:13;100619.06;;;-2.98;49.55
44351;BME280;62766;62.622;17.912;2023-02-11T07:49:41;100616.34;;;-2.97;49.29
44351;BME280;62766;62.622;17.912;2023-02-11T07:52:10;100623.38;;;-2.97;49.15
44351;BME280;62766;62.622;17.912;2023-02-11T07:54:40;100625.22;;;-2.92;49.14
44351;BME280;62766;62.622;17.912;2023-02-11T07:57:09;100622.77;;;-2.82;49.18
44351;BME280;62766;62.622;17.912;2023-02-11T07:59:37;100626.73;;;-2.91;49.28
44351;BME280;62766;62.622;17.912;2023-02-11T08:02:07;100636.04;;;-2.82;49.30
44351;BME280;62766;62.622;17.912;2023-02-11T08:04:36;100639.07;;;-2.65;49.13
44351;BME280;62766;62.622;17.912;2023-02-11T08:07:05;100643.60;;;-2.67;49.15
44351;BME280;62766;62.622;17.912;2023-02-11T08:09:33;100650.48;;;-2.77;49.23
44351;BME280;62766;62.622;17.912;2023-02-11T08:12:02;100661.21;;;-2.89;49.36
44351;BME280;62766;62.622;17.912;2023-02-11T08:14:31;100657.24;;;-2.79;49.67
44351;BME280;62766;62.622;17.912;2023-02-11T08:16:59;100663.35;;;-3.02;49.78
44351;BME280;62766;62.622;17.912;2023-02-11T08:19:28;100670.93;;;-2.93;49.63
44351;BME280;62766;62.622;17.912;2023-02-11T08:21:57;100680.64;;;-2.90;49.71
44351;BME280;62766;62.622;17.912;2023-02-11T08:24:25;100693.91;;;-2.81;49.61
44351;BME280;62766;62.622;17.912;2023-02-11T08:26:54;100699.32;;;-2.78;49.52
44351;BME280;62766;62.622;17.912;2023-02-11T08:29:22;100703.78;;;-2.60;49.22
44351;BME280;62766;62.622;17.912;2023-02-11T08:31:51;100710.26;;;-2.46;48.96
44351;BME280;62766;62.622;17.912;2023-02-11T08:34:19;100720.94;;;-2.48;48.83
44351;BME280;62766;62.622;17.912;2023-02-11T08:36:48;100729.93;;;-2.39;48.74
44351;BME280;62766;62.622;17.912;2023-02-11T08:39:20;100736.88;;;-2.33;48.65
44351;BME280;62766;62.622;17.912;2023-02-11T08:41:51;100744.57;;;-2.21;48.45
44351;BME280;62766;62.622;17.912;2023-02-11T08:44:22;100749.66;;;-2.26;48.40
44351;BME280;62766;62.622;17.912;2023-02-11T08:46:52;100757.73;;;-2.12;48.20
44351;BME280;62766;62.622;17.912;2023-02-11T08:49:20;100763.36;;;-2.05;47.92
44351;BME280;62766;62.622;17.912;2023-02-11T08:51:48;100774.30;;;-2.03;48.06
44351;BME280;62766;62.622;17.912;2023-02-11T08:54:17;100782.51;;;-2.13;48.02
44351;BME280;62766;62.622;17.912;2023-02-11T08:56:50;100797.91;;;-2.00;47.88
44351;BME280;62766;62.622;17.912;2023-02-11T08:59:19;100807.41;;;-1.97;47.70
44351;BME280;62766;62.622;17.912;2023-02-11T09:01:48;100815.07;;;-1.90;47.63
44351;BME280;62766;62.622;17.912;2023-02-11T09:04:17;100824.55;;;-1.78;47.41
44351;BME280;62766;62.622;17.912;2023-02-11T09:06:45;100838.43;;;-1.73;47.16
44351;BME280;62766;62.622;17.912;2023-02-11T09:09:14;100842.57;;;-1.56;47.15
44351;BME280;62766;62.622;17.912;2023-02-11T09:11:43;100849.43;;;-1.47;46.96
44351;BME280;62766;62.622;17.912;2023-02-11T09:14:17;100849.66;;;-1.47;46.86
44351;BME280;62766;62.622;17.912;2023-02-11T09:16:45;100858.57;;;-1.32;46.44
44351;BME280;62766;62.622;17.912;2023-02-11T09:19:14;100857.31;;;-1.23;46.45
44351;BME280;62766;62.622;17.912;2023-02-11T09:21:44;100860.27;;;-1.24;46.37
44351;BME280;62766;62.622;17.912;2023-02-11T09:24:13;100862.32;;;-1.02;46.23
44351;BME280;62766;62.622;17.912;2023-02-11T09:26:42;100867.85;;;-1.01;45.96
44351;BME280;62766;62.622;17.912;2023-02-11T09:29:10;100872.50;;;-0.92;46.00
44351;BME280;62766;62.622;17.912;2023-02-11T09:31:41;100878.20;;;-0.78;45.74
44351;BME280;62766;62.622;17.912;2023-02-11T09:34:10;100882.03;;;-0.63;45.55
44351;BME280;62766;62.622;17.912;2023-02-11T09:36:40;100886.46;;;-0.56;45.33
44351;BME280;62766;62.622;17.912;2023-02-11T09:39:11;100889.08;;;-0.56;45.11
44351;BME280;62766;62.622;17.912;2023-02-11T09:41:54;100889.74;;;-0.44;44.76
44351;BME280;62766;62.622;17.912;2023-02-11T09:44:31;100896.08;;;-0.43;44.77
44351;BME280;62766;62.622;17.912;2023-02-11T09:47:04;100902.93;;;-0.27;44.58
44351;BME280;62766;62.622;17.912;2023-02-11T09:49:39;100902.90;;;-0.18;44.32
44351;BME280;62766;62.622;17.912;2023-02-11T09:52:17;100902.55;;;-0.18;44.28
44351;BME280;62766;62.622;17.912;2023-02-11T09:54:53;100906.97;;;-0.21;43.85
44351;BME280;62766;62.622;17.912;2023-02-11T09:57:32;100911.74;;;-0.06;43.62
44351;BME280;62766;62.622;17.912;2023-02-11T10:00:02;100923.37;;;0.01;43.79
44351;BME280;62766;62.622;17.912;2023-02-11T10:02:56;100931.12;;;0.23;43.56
44351;BME280;62766;62.622;17.912;2023-02-11T10:05:39;100940.27;;;0.20;43.00
44351;BME280;62766;62.622;17.912;2023-02-11T10:08:16;100944.43;;;0.31;42.85
44351;BME280;62766;62.622;17.912;2023-02-11T10:10:50;100948.62;;;0.35;42.61
44351;BME280;62766;62.622;17.912;2023-02-11T10:13:34;100955.52;;;0.42;42.27
44351;BME280;62766;62.622;17.912;2023-02-11T10:16:17;100968.57;;;0.44;42.69
44351;BME280;62766;62.622;17.912;2023-02-11T10:19:00;100976.11;;;0.44;42.08
44351;BME280;62766;62.622;17.912;2023-02-11T10:21:39;100983.91;;;0.53;42.13
44351;BME280;62766;62.622;17.912;2023-02-11T10:24:14;100988.49;;;0.59;41.87
44351;BME280;62766;62.622;17.912;2023-02-11T10:26:44;100992.71;;;0.69;41.97
44351;BME280;62766;62.622;17.912;2023-02-11T10:29:23;100999.68;;;0.75;41.58
44351;BME280;62766;62.622;17.912;2023-02-11T10:31:55;101004.79;;;0.93;41.74
44351;BME280;62766;62.622;17.912;2023-02-11T10:34:25;101011.63;;;1.04;41.15
44351;BME280;62766;62.622;17.912;2023-02-11T10:36:53;101017.55;;;0.87;41.27
44351;BME280;62766;62.622;17.912;2023-02-11T10:39:25;101021.25;;;1.02;41.00
44351;BME280;62766;62.622;17.912;2023-02-11T10:41:56;101026.89;;;0.87;41.15
44351;BME280;62766;62.622;17.912;2023-02-11T10:44:29;101032.04;;;1.05;40.83
44351;BME280;62766;62.622;17.912;2023-02-11T10:47:02;101036.94;;;1.09;40.77
44351;BME280;62766;62.622;17.912;2023-02-11T10:49:34;101037.17;;;1.19;40.63
44351;BME280;62766;62.622;17.912;2023-02-11T10:52:14;101049.65;;;1.17;40.68
44351;BME280;62766;62.622;17.912;2023-02-11T10:54:55;101049.02;;;1.21;40.33
44351;BME280;62766;62.622;17.912;2023-02-11T10:57:26;101053.40;;;1.17;40.29
44351;BME280;62766;62.622;17.912;2023-02-11T10:59:58;101065.35;;;1.11;40.56
44351;BME280;62766;62.622;17.912;2023-02-11T11:05:01;101072.53;;;1.00;40.80
44351;BME280;62766;62.622;17.912;2023-02-11T11:07:32;101078.71;;;0.90;40.56
44351;BME280;62766;62.622;17.912;2023-02-11T11:10:03;101079.41;;;1.00;40.73
44351;BME280;62766;62.622;17.912;2023-02-11T11:12:35;101081.48;;;1.05;40.78
44351;BME280;62766;62.622;17.912;2023-02-11T11:15:17;101087.02;;;0.98;41.01
44351;BME280;62766;62.622;17.912;2023-02-11T11:17:47;101093.26;;;1.17;40.71
44351;BME280;62766;62.622;17.912;2023-02-11T11:20:22;101105.15;;;1.30;40.49
44351;BME280;62766;62.622;17.912;2023-02-11T11:22:53;101110.10;;;1.22;40.47
44351;BME280;62766;62.622;17.912;2023-02-11T11:25:38;101116.34;;;1.37;40.48
44351;BME280;62766;62.622;17.912;2023-02-11T11:28:19;101120.55;;;1.43;40.32
44351;BME280;62766;62.622;17.912;2023-02-11T11:30:48;101122.31;;;1.54;39.68
44351;BME280;62766;62.622;17.912;2023-02-11T11:33:20;101134.15;;;1.56;39.84
44351;BME280;62766;62.622;17.912;2023-02-11T11:36:09;101134.76;;;1.54;39.07
44351;BME280;62766;62.622;17.912;2023-02-11T11:38:43;101142.46;;;1.46;39.68
44351;BME280;62766;62.622;17.912;2023-02-11T11:41:19;101143.84;;;1.50;39.75
44351;BME280;62766;62.622;17.912;2023-02-11T11:43:54;101150.72;;;1.53;39.66
44351;BME280;62766;62.622;17.912;2023-02-11T11:46:27;101152.38;;;1.68;39.73
44351;BME280;62766;62.622;17.912;2023-02-11T11:49:04;101152.87;;;1.71;39.48
44351;BME280;62766;62.622;17.912;2023-02-11T11:51:36;101163.45;;;1.82;39.18
44351;BME280;62766;62.622;17.912;2023-02-11T11:54:10;101169.99;;;1.73;39.30
44351;BME280;62766;62.622;17.912;2023-02-11T11:56:49;101177.67;;;1.76;39.04
44351;BME280;62766;62.622;17.912;2023-02-11T11:59:18;101181.00;;;1.77;39.51
44351;BME280;62766;62.622;17.912;2023-02-11T12:01:59;101187.85;;;1.80;39.22
44351;BME280;62766;62.622;17.912;2023-02-11T12:04:42;101188.66;;;1.79;39.14
44351;BME280;62766;62.622;17.912;2023-02-11T12:07:27;101196.27;;;1.64;39.13
44351;BME280;62766;62.622;17.912;2023-02-11T12:10:22;101202.70;;;1.70;38.88
44351;BME280;62766;62.622;17.912;2023-02-11T12:13:02;101209.98;;;1.70;39.33
44351;BME280;62766;62.622;17.912;2023-02-11T12:15:39;101211.64;;;1.71;39.27
44351;BME280;62766;62.622;17.912;2023-02-11T12:18:21;101218.64;;;1.70;39.41
44351;BME280;62766;62.622;17.912;2023-02-11T12:21:08;101220.66;;;1.75;39.02
44351;BME280;62766;62.622;17.912;2023-02-11T12:23:51;101223.07;;;1.57;38.60
44351;BME280;62766;62.622;17.912;2023-02-11T12:26:30;101222.69;;;1.58;38.89
44351;BME280;62766;62.622;17.912;2023-02-11T12:29:13;101227.05;;;1.53;38.89
44351;BME280;62766;62.622;17.912;2023-02-11T12:31:59;101237.65;;;1.51;38.92
44351;BME280;62766;62.622;17.912;2023-02-11T12:34:41;101237.33;;;1.31;38.97
44351;BME280;62766;62.622;17.912;2023-02-11T12:37:23;101240.94;;;1.20;38.74
44351;BME280;62766;62.622;17.912;2023-02-11T12:39:59;101243.12;;;1.25;38.91
44351;BME280;62766;62.622;17.912;2023-02-11T12:42:38;101249.35;;;1.18;39.42
44351;BME280;62766;62.622;17.912;2023-02-11T12:45:24;101257.12;;;1.23;39.41
44351;BME280;62766;62.622;17.912;2023-02-11T12:48:08;101258.88;;;1.18;39.20
44351;BME280;62766;62.622;17.912;2023-02-11T12:50:47;101263.41;;;0.97;39.31
44351;BME280;62766;62.622;17.912;2023-02-11T12:53:36;101266.73;;;1.01;38.93
44351;BME280;62766;62.622;17.912;2023-02-11T12:56:15;101267.82;;;1.00;39.35
44351;BME280;62766;62.622;17.912;2023-02-11T12:58:49;101274.41;;;1.06;39.58
44351;BME280;62766;62.622;17.912;2023-02-11T13:01:21;101284.40;;;0.97;38.99
44351;BME280;62766;62.622;17.912;2023-02-11T13:03:54;101292.06;;;1.15;38.95
44351;BME280;62766;62.622;17.912;2023-02-11T13:06:28;101287.99;;;1.18;39.06
44351;BME280;62766;62.622;17.912;2023-02-11T13:09:03;101298.37;;;1.11;38.67
44351;BME280;62766;62.622;17.912;2023-02-11T13:11:37;101298.59;;;1.14;38.97
44351;BME280;62766;62.622;17.912;2023-02-11T13:14:13;101301.44;;;1.15;38.62
44351;BME280;62766;62.622;17.912;2023-02-11T13:16:46;101302.56;;;1.09;38.80